Time;durP1;ratioP1;P1;durP2;ratioP2;P2;SDS_P1;SDS_P2;PMS_P1;PMS_P2;Temp;Humidity;BMP_temperature;BMP_pressure;BME280_temperature;BME280_humidity;BME280_pressure;Samples;Min_cycle;Max_cycle;Signal;HPM_P1;HPM_P2
2022/06/14 00:00:58;;;;;;;5.55;3.13;;;9.70;99.90;;;;;;5094480;28;20024;-65
2022/06/14 00:03:12;;;;;;;6.25;3.10;;;9.70;99.90;;;;;;5093348;28;20482;-66
2022/06/14 00:05:38;;;;;;;8.13;3.53;;;9.60;99.90;;;;;;5094402;28;20023;-66
2022/06/14 00:08:04;;;;;;;10.23;3.63;;;9.60;99.90;;;;;;5094384;28;20035;-65
2022/06/14 00:10:30;;;;;;;9.70;3.95;;;9.60;99.90;;;;;;5094449;28;20024;-66
2022/06/14 00:12:56;;;;;;;7.65;4.47;;;9.50;99.90;;;;;;5094191;28;20546;-66
2022/06/14 00:15:22;;;;;;;7.07;3.78;;;9.50;99.90;;;;;;5093927;28;20047;-66
2022/06/14 00:17:48;;;;;;;6.68;4.15;;;9.50;99.90;;;;;;5094105;28;20059;-65
2022/06/14 00:20:14;;;;;;;6.85;4.15;;;9.40;99.90;;;;;;5094118;28;20086;-65
2022/06/14 00:22:40;;;;;;;5.35;3.78;;;9.40;99.90;;;;;;5094274;28;20062;-65
2022/06/14 00:25:06;;;;;;;6.55;4.20;;;9.40;99.90;;;;;;5093702;28;20433;-65
2022/06/14 00:27:32;;;;;;;10.05;4.53;;;9.30;99.90;;;;;;5094039;28;20090;-65
2022/06/14 00:29:57;;;;;;;6.40;3.88;;;9.30;99.90;;;;;;5094228;28;20032;-65
2022/06/14 00:32:23;;;;;;;8.98;4.13;;;9.20;99.90;;;;;;5075702;28;20024;-65
2022/06/14 00:34:49;;;;;;;8.27;4.47;;;9.20;99.90;;;;;;5094006;28;20024;-65
2022/06/14 00:37:18;;;;;;;8.00;4.32;;;9.20;99.90;;;;;;5092607;28;20023;-66
2022/06/14 00:39:44;;;;;;;9.65;4.57;;;9.20;99.90;;;;;;5093780;28;20082;-65
2022/06/14 00:42:25;;;;;;;11.45;4.78;;;9.20;99.90;;;;;;5093687;28;20082;-65
2022/06/14 00:45:14;;;;;;;8.13;4.20;;;9.20;99.90;;;;;;5093904;28;20481;-65
2022/06/14 00:47:48;;;;;;;9.18;4.10;;;9.20;99.90;;;;;;5093911;28;20047;-66
2022/06/14 00:50:16;;;;;;;;;;;9.10;99.90;;;;;;5094299;28;20482;-65
2022/06/14 00:52:48;;;;;;;8.10;4.60;;;9.10;99.90;;;;;;5093542;28;19908;-65
2022/06/14 00:55:22;;;;;;;10.48;4.60;;;9.10;99.90;;;;;;5093500;28;20035;-65
2022/06/14 00:57:53;;;;;;;8.13;4.20;;;9.00;99.90;;;;;;5093733;28;20020;-65
2022/06/14 01:00:24;;;;;;;9.40;4.93;;;9.10;99.90;;;;;;5093389;28;20483;-65
2022/06/14 01:02:53;;;;;;;7.20;4.50;;;9.00;99.90;;;;;;5093692;28;20024;-65
2022/06/14 01:05:28;;;;;;;12.00;5.15;;;9.00;99.90;;;;;;5093597;28;20024;-65
2022/06/14 01:07:58;;;;;;;6.95;4.50;;;8.90;99.90;;;;;;5093604;28;20501;-65
2022/06/14 01:10:28;;;;;;;6.68;4.43;;;8.90;99.90;;;;;;5093354;28;20035;-65
2022/06/14 01:12:58;;;;;;;8.30;5.00;;;9.00;99.90;;;;;;5093538;28;20039;-65
2022/06/14 01:15:27;;;;;;;7.93;4.72;;;9.00;99.90;;;;;;5093007;28;20166;-65
2022/06/14 01:17:58;;;;;;;9.55;5.15;;;8.90;99.90;;;;;;5091969;28;20031;-65
2022/06/14 01:20:24;;;;;;;5.53;3.92;;;8.90;99.90;;;;;;5093468;28;20155;-65
2022/06/14 01:22:51;;;;;;;8.40;4.38;;;8.90;99.90;;;;;;5093190;28;20103;-65
2022/06/14 01:25:17;;;;;;;10.80;4.95;;;8.90;99.90;;;;;;5091983;28;20136;-65
2022/06/14 01:27:44;;;;;;;7.28;5.07;;;8.80;99.90;;;;;;5093391;28;20093;-65
2022/06/14 01:30:15;;;;;;;8.38;4.50;;;8.80;99.90;;;;;;5093095;28;20020;-65
2022/06/14 01:32:54;;;;;;;10.18;4.97;;;8.90;99.90;;;;;;5093371;28;20056;-65
2022/06/14 01:35:23;;;;;;;9.20;5.35;;;8.90;99.90;;;;;;5093050;28;20028;-65
2022/06/14 01:37:52;;;;;;;9.93;5.63;;;8.90;99.90;;;;;;5095766;28;20106;-66
2022/06/14 01:40:21;;;;;;;6.63;5.10;;;8.90;99.90;;;;;;5095981;28;20414;-65
2022/06/14 01:43:15;;;;;;;10.48;5.78;;;8.90;99.90;;;;;;5097149;28;20020;-66
2022/06/14 01:46:08;;;;;;;12.32;6.05;;;8.90;99.90;;;;;;5097099;28;20387;-66
2022/06/14 01:48:52;;;;;;;9.97;5.63;;;8.90;99.90;;;;;;5097316;28;20051;-66
2022/06/14 01:52:03;;;;;;;9.75;5.60;;;8.90;99.90;;;;;;5097212;28;20107;-66
2022/06/14 01:54:33;;;;;;;10.52;6.10;;;8.90;99.90;;;;;;5096650;28;20062;-66
2022/06/14 02:00:01;;;;;;;8.85;5.68;;;8.80;99.90;;;;;;5070538;28;20383;-66
2022/06/14 02:02:49;;;;;;;11.07;5.80;;;8.90;99.90;;;;;;5069269;28;20033;-66
2022/06/14 02:05:22;;;;;;;14.32;5.90;;;8.90;99.90;;;;;;5070368;28;20038;-66
2022/06/14 02:08:10;;;;;;;10.52;6.15;;;8.90;99.90;;;;;;5070474;28;20020;-66
2022/06/14 02:10:45;;;;;;;15.60;7.13;;;8.90;99.90;;;;;;5070613;28;20460;-66
2022/06/14 02:13:19;;;;;;;8.57;5.72;;;8.90;99.90;;;;;;5070574;28;20025;-66
2022/06/14 02:16:12;;;;;;;13.00;6.00;;;8.70;99.90;;;;;;5070525;28;20029;-66
2022/06/14 02:18:51;;;;;;;10.95;6.32;;;8.70;99.90;;;;;;5068850;28;20028;-66
2022/06/14 02:21:24;;;;;;;11.35;6.20;;;8.70;99.90;;;;;;5070426;28;20070;-66
2022/06/14 02:23:57;;;;;;;12.18;5.65;;;8.70;99.90;;;;;;5070127;28;20013;-66
2022/06/14 02:26:28;;;;;;;;;;;8.60;99.90;;;;;;5069253;28;20372;-66
2022/06/14 02:29:02;;;;;;;10.50;5.88;;;8.60;99.90;;;;;;5068761;28;20367;-66
2022/06/14 02:31:32;;;;;;;10.02;6.57;;;;;;;;;;5069924;28;20051;-66
2022/06/14 02:34:02;;;;;;;14.98;6.78;;;8.50;99.90;;;;;;5070155;28;20086;-66
2022/06/14 02:36:41;;;;;;;9.77;6.18;;;8.50;99.90;;;;;;5068950;28;20028;-66
2022/06/14 02:39:14;;;;;;;9.65;6.32;;;8.50;99.90;;;;;;5070090;28;20526;-66
2022/06/14 02:41:47;;;;;;;11.55;6.85;;;8.50;99.90;;;;;;5069977;28;20423;-66
2022/06/14 02:44:36;;;;;;;9.73;7.32;;;8.40;99.90;;;;;;5069703;28;20040;-66
2022/06/14 02:47:24;;;;;;;12.18;7.07;;;8.40;99.90;;;;;;5069535;28;20475;-66
2022/06/14 02:50:16;;;;;;;12.57;7.32;;;8.40;99.90;;;;;;5069559;28;20115;-66
2022/06/14 02:52:50;;;;;;;11.48;7.07;;;8.40;99.90;;;;;;5069423;28;20104;-66
2022/06/14 02:55:24;;;;;;;12.13;7.20;;;8.40;99.90;;;;;;5069441;28;20032;-66
2022/06/14 02:57:59;;;;;;;13.85;6.70;;;8.40;99.90;;;;;;5069345;28;20505;-66
2022/06/14 03:00:31;;;;;;;10.52;6.78;;;8.30;99.90;;;;;;5068078;28;20016;-66
2022/06/14 03:03:03;;;;;;;13.00;7.53;;;8.40;99.90;;;;;;5068402;28;20017;-66
2022/06/14 03:05:37;;;;;;;11.65;7.30;;;8.40;99.90;;;;;;5069448;28;20025;-66
2022/06/14 03:08:11;;;;;;;12.27;7.40;;;8.40;99.90;;;;;;5069263;28;20108;-66
2022/06/14 03:10:44;;;;;;;10.50;6.63;;;8.50;99.90;;;;;;5059216;28;20223;-66
2022/06/14 03:13:35;;;;;;;16.85;7.13;;;8.50;99.90;;;;;;5055872;28;20032;-66
2022/06/14 03:16:19;;;;;;;13.18;7.35;;;8.60;99.90;;;;;;5055811;28;20107;-65
2022/06/14 03:18:56;;;;;;;14.98;7.47;;;8.80;99.90;;;;;;5055717;28;20029;-65
2022/06/14 03:21:35;;;;;;;13.80;8.23;;;8.90;99.90;;;;;;5055757;28;20029;-66
2022/06/14 03:24:14;;;;;;;13.30;8.90;;;9.00;99.90;;;;;;5054556;28;20056;-65
2022/06/14 03:26:55;;;;;;;17.90;7.78;;;9.10;99.90;;;;;;5055655;28;20036;-66
2022/06/14 03:29:29;;;;;;;14.90;7.35;;;9.30;99.90;;;;;;5055806;28;20041;-66
2022/06/14 03:32:04;;;;;;;13.18;7.20;;;9.40;99.90;;;;;;5055564;28;20506;-66
2022/06/14 03:34:40;;;;;;;12.50;6.78;;;9.50;99.90;;;;;;5055448;28;20053;-66
2022/06/14 03:37:07;;;;;;;15.02;9.27;;;9.50;99.90;;;;;;5055698;28;20021;-66
2022/06/14 03:39:41;;;;;;;15.93;9.48;;;9.60;99.90;;;;;;5054220;28;20029;-66
2022/06/14 03:42:08;;;;;;;21.75;9.68;;;9.60;99.90;;;;;;5054206;28;20028;-65
2022/06/14 03:44:34;;;;;;;10.35;8.23;;;9.70;99.90;;;;;;5055393;28;20040;-66
2022/06/14 03:47:20;;;;;;;20.60;8.25;;;9.80;99.90;;;;;;5055542;28;20060;-66
2022/06/14 03:49:53;;;;;;;10.88;7.85;;;9.80;99.90;;;;;;5054283;28;20052;-66
2022/06/14 03:52:46;;;;;;;14.15;8.07;;;9.80;99.90;;;;;;5055133;28;20023;-66
2022/06/14 03:55:42;;;;;;;14.55;7.82;;;9.80;99.90;;;;;;5054920;28;20551;-66
2022/06/14 03:58:34;;;;;;;16.80;8.07;;;9.80;99.90;;;;;;5054737;28;20060;-66
2022/06/14 04:01:23;;;;;;;17.75;9.25;;;9.80;99.90;;;;;;5055204;28;20472;-66
2022/06/14 04:04:13;;;;;;;17.08;8.38;;;9.70;99.90;;;;;;5054829;28;20021;-66
2022/06/14 04:06:50;;;;;;;11.57;7.95;;;9.70;99.90;;;;;;5053527;28;20391;-66
2022/06/14 04:09:47;;;;;;;10.95;8.30;;;9.70;99.90;;;;;;5055071;28;20557;-66
2022/06/14 04:12:52;;;;;;;16.13;9.13;;;9.70;99.90;;;;;;5053737;28;20029;-66
2022/06/14 04:15:48;;;;;;;19.02;8.80;;;9.80;99.90;;;;;;5054687;28;20025;-66
2022/06/14 04:18:41;;;;;;;14.23;9.05;;;9.90;99.90;;;;;;5054464;28;20029;-66
2022/06/14 04:21:31;;;;;;;13.48;8.48;;;10.10;99.90;;;;;;5053727;28;20083;-66
2022/06/14 04:24:37;;;;;;;15.18;7.90;;;10.30;99.90;;;;;;5054827;28;20043;-66
2022/06/14 04:27:11;;;;;;;14.07;8.30;;;10.50;99.90;;;;;;5054413;28;20024;-66
2022/06/14 04:29:49;;;;;;;16.42;7.95;;;10.60;99.90;;;;;;5054880;28;20499;-66
2022/06/14 04:32:45;;;;;;;16.25;7.68;;;10.70;99.90;;;;;;5054624;28;20402;-66
2022/06/14 04:35:21;;;;;;;11.82;7.32;;;10.80;99.90;;;;;;5054310;28;20432;-66
2022/06/14 04:37:53;;;;;;;10.40;6.30;;;10.90;99.90;;;;;;5052918;28;20033;-66
2022/06/14 04:40:26;;;;;;;13.98;7.72;;;11.00;99.90;;;;;;5053003;28;20029;-66
2022/06/14 04:42:59;;;;;;;9.55;6.80;;;11.30;99.90;;;;;;5054518;28;20523;-66
2022/06/14 04:45:33;;;;;;;15.57;6.95;;;11.90;99.90;;;;;;5054152;28;20036;-66
2022/06/14 04:48:07;;;;;;;9.98;5.95;;;12.20;99.90;;;;;;5054349;28;20021;-67
2022/06/14 04:50:42;;;;;;;15.10;7.00;;;12.30;99.90;;;;;;5054321;28;20028;-66
2022/06/14 04:53:17;;;;;;;16.67;6.28;;;12.30;99.90;;;;;;5053933;28;20021;-66
2022/06/14 04:55:50;;;;;;;13.30;5.75;;;12.30;99.90;;;;;;5054243;28;20032;-66
2022/06/14 04:58:25;;;;;;;12.98;5.95;;;12.50;99.90;;;;;;5052567;28;20041;-66
2022/06/14 05:00:57;;;;;;;14.40;6.03;;;12.90;99.90;;;;;;5053865;28;20079;-66
2022/06/14 05:03:30;;;;;;;10.65;6.00;;;13.10;99.90;;;;;;5053831;28;20467;-66
2022/06/14 05:06:01;;;;;;;12.40;5.68;;;13.20;99.90;;;;;;5053877;28;20021;-67
2022/06/14 05:08:33;;;;;;;11.05;6.28;;;13.20;99.90;;;;;;5053892;28;20111;-67
2022/06/14 05:11:21;;;;;;;8.63;5.20;;;;;;;;;;5053756;28;20539;-66
2022/06/14 05:14:17;;;;;;;15.90;5.55;;;14.20;99.90;;;;;;5053727;28;20028;-66
2022/06/14 05:16:52;;;;;;;12.00;4.90;;;14.80;99.90;;;;;;5052386;28;20095;-66
2022/06/14 05:19:34;;;;;;;11.13;4.78;;;15.20;99.90;;;;;;5053749;28;20071;-66
2022/06/14 05:22:10;;;;;;;14.35;5.05;;;15.30;99.90;;;;;;5053835;28;20479;-66
2022/06/14 05:24:37;;;;;;;11.68;4.75;;;15.00;99.90;;;;;;5053722;28;20036;-66
2022/06/14 05:27:33;;;;;;;14.73;5.53;;;15.20;99.90;;;;;;5052166;28;20112;-66
2022/06/14 05:30:30;;;;;;;14.52;5.30;;;15.30;99.90;;;;;;5052490;28;20037;-66
2022/06/14 05:33:03;;;;;;;10.27;5.45;;;15.40;99.90;;;;;;5053051;28;20024;-66
2022/06/14 05:35:37;;;;;;;9.85;4.35;;;15.70;99.90;;;;;;5053567;28;20025;-66
2022/06/14 05:38:43;;;;;;;13.48;4.68;;;16.10;99.90;;;;;;5053162;28;20029;-66
2022/06/14 05:41:18;;;;;;;10.57;4.55;;;16.60;99.90;;;;;;5053114;28;20365;-66
2022/06/14 05:43:51;;;;;;;11.95;4.75;;;17.90;99.90;;;;;;5053441;28;20021;-66
2022/06/14 05:46:25;;;;;;;11.17;4.20;;;18.40;99.90;;;;;;5053106;28;20025;-66
2022/06/14 05:48:56;;;;;;;9.90;3.78;;;19.00;99.90;;;;;;5052296;28;20248;-67
2022/06/14 05:51:29;;;;;;;14.00;4.07;;;19.60;99.90;;;;;;5053042;28;20021;-66
2022/06/14 05:54:05;;;;;;;9.15;3.60;;;18.70;99.90;;;;;;5051859;28;20021;-66
2022/06/14 05:56:44;;;;;;;14.57;4.55;;;18.10;99.90;;;;;;5052993;28;20031;-66
2022/06/14 05:59:26;;;;;;;9.00;4.07;;;17.80;99.90;;;;;;5052839;28;20045;-66
2022/06/14 06:02:15;;;;;;;14.35;4.65;;;17.50;99.90;;;;;;5053214;28;20414;-66
2022/06/14 06:04:49;;;;;;;11.43;4.95;;;17.20;99.90;;;;;;5052807;28;20078;-66
2022/06/14 06:07:20;;;;;;;12.43;4.55;;;17.40;99.90;;;;;;5051429;28;20108;-66
2022/06/14 06:09:51;;;;;;;11.02;5.00;;;18.30;99.90;;;;;;5052693;28;20029;-66
2022/06/14 06:12:26;;;;;;;11.52;4.65;;;18.00;99.90;;;;;;5053273;28;20032;-66
2022/06/14 06:15:00;;;;;;;11.63;5.40;;;17.60;99.90;;;;;;5052996;28;20035;-66
2022/06/14 06:17:33;;;;;;;14.27;4.88;;;18.00;99.90;;;;;;5053062;28;20033;-66
2022/06/14 06:20:09;;;;;;;11.80;4.40;;;18.40;99.90;;;;;;5053195;28;20033;-66
2022/06/14 06:22:43;;;;;;;13.15;5.18;;;18.20;99.90;;;;;;5051838;28;20040;-66
2022/06/14 06:25:21;;;;;;;9.98;4.65;;;18.00;99.90;;;;;;5051090;28;20100;-67
2022/06/14 06:27:53;;;;;;;14.98;5.35;;;17.90;99.90;;;;;;5046552;28;20029;-66
2022/06/14 06:30:40;;;;;;;11.25;5.22;;;18.30;99.90;;;;;;5051861;28;20021;-66
2022/06/14 06:33:10;;;;;;;13.07;4.90;;;18.40;99.90;;;;;;5047347;28;20533;-67
2022/06/14 06:35:45;;;;;;;12.20;5.07;;;18.50;99.90;;;;;;5055577;28;20071;-66
2022/06/14 06:38:36;;;;;;;15.40;5.45;;;18.50;99.90;;;;;;5069973;28;20025;-67
2022/06/14 06:43:59;;;;;;;10.93;3.28;;;20.10;99.90;;;;;;5063166;28;20027;-67
2022/06/14 06:46:29;;;;;;;12.07;3.55;;;20.10;99.90;;;;;;5056596;28;20024;-67
2022/06/14 06:48:59;;;;;;;8.98;3.38;;;20.20;99.90;;;;;;5061622;28;20028;-66
2022/06/14 06:51:34;;;;;;;8.73;3.30;;;20.00;99.90;;;;;;5067077;28;20035;-66
2022/06/14 06:54:18;;;;;;;7.78;3.70;;;19.50;99.90;;;;;;5069800;28;20479;-67
2022/06/14 06:56:48;;;;;;;9.95;3.85;;;19.10;99.90;;;;;;5054837;28;20131;-66
2022/06/14 06:59:25;;;;;;;12.70;4.50;;;18.40;99.90;;;;;;5068234;28;20044;-67
2022/06/14 07:01:54;;;;;;;7.72;3.60;;;18.30;99.90;;;;;;5062938;28;20215;-67
2022/06/14 07:05:03;;;;;;;11.57;4.05;;;19.20;99.90;;;;;;5057838;28;20431;-66
2022/06/14 07:07:34;;;;;;;13.13;4.13;;;19.70;99.90;;;;;;5060028;28;20100;-67
2022/06/14 07:10:22;;;;;;;10.50;4.10;;;20.40;99.90;;;;;;5055726;28;20079;-67
2022/06/14 07:12:54;;;;;;;10.73;3.78;;;19.80;99.90;;;;;;5059630;28;20504;-67
2022/06/14 07:15:32;;;;;;;10.95;3.80;;;20.50;99.90;;;;;;5057352;28;20392;-67
2022/06/14 07:23:37;;;;;;;9.15;3.38;;;21.40;99.90;;;;;;5088000;28;20770;-66
2022/06/14 07:26:25;;;;;;;11.20;3.58;;;21.00;99.90;;;;;;5068824;28;20031;-66
2022/06/14 07:31:57;;;;;;;12.27;3.17;;;21.80;98.50;;;;;;5075495;28;20398;-74
2022/06/14 07:34:24;;;;;;;11.20;3.20;;;21.00;99.90;;;;;;5072937;28;20376;-73
2022/06/14 07:37:14;;;;;;;11.80;3.42;;;20.50;99.90;;;;;;5071104;28;20024;-74
2022/06/14 07:39:51;;;;;;;12.80;3.60;;;20.50;99.90;;;;;;5054461;28;20398;-74
2022/06/14 07:42:23;;;;;;;9.95;3.38;;;21.10;99.90;;;;;;5066841;28;20545;-73
2022/06/14 07:44:56;;;;;;;12.05;3.67;;;21.00;99.20;;;;;;5063986;28;20024;-73
2022/06/14 07:47:52;;;;;;;10.25;3.42;;;22.30;98.70;;;;;;5074437;28;20029;-73
2022/06/14 07:50:45;;;;;;;8.05;3.05;;;22.40;97.60;;;;;;5101300;28;20487;-73
2022/06/14 07:53:18;;;;;;;9.37;3.13;;;22.80;95.70;;;;;;5061493;28;20475;-73
2022/06/14 07:55:49;;;;;;;12.57;4.05;;;22.30;96.90;;;;;;5068714;28;20025;-73
2022/06/14 07:58:38;;;;;;;12.80;3.83;;;21.90;95.80;;;;;;5072752;28;20033;-72
2022/06/14 08:01:10;;;;;;;12.18;3.42;;;21.50;98.20;;;;;;5070180;28;20036;-73
2022/06/14 08:04:16;;;;;;;14.70;3.80;;;23.20;94.70;;;;;;5064976;28;20032;-73
2022/06/14 08:06:50;;;;;;;10.30;3.33;;;22.60;94.70;;;;;;5057761;28;20737;-73
2022/06/14 08:09:28;;;;;;;10.18;3.53;;;21.90;95.50;;;;;;5072289;28;20028;-73
2022/06/14 08:11:57;;;;;;;8.35;3.08;;;20.90;97.00;;;;;;5050212;28;20546;-72
2022/06/14 08:17:17;;;;;;;12.85;4.32;;;19.20;99.90;;;;;;5114185;27;20451;-67
2022/06/14 08:19:51;;;;;;;14.80;4.40;;;18.90;99.90;;;;;;5111538;28;20038;-68
2022/06/14 08:22:23;;;;;;;12.30;6.55;;;20.30;99.80;;;;;;5114428;28;20114;-67
2022/06/14 08:24:56;;;;;;;9.18;5.10;;;20.60;96.20;;;;;;5109064;28;20548;-67
2022/06/14 08:27:29;;;;;;;9.63;5.10;;;21.50;95.30;;;;;;5109711;28;20077;-67
2022/06/14 08:30:04;;;;;;;17.35;5.93;;;23.00;92.10;;;;;;5108137;28;20012;-67
2022/06/14 08:32:38;;;;;;;13.38;4.93;;;22.70;92.50;;;;;;5109300;28;20385;-67
2022/06/14 08:35:29;;;;;;;12.60;4.80;;;23.10;91.90;;;;;;5109613;28;20058;-67
2022/06/14 08:38:07;;;;;;;11.73;4.40;;;23.00;91.90;;;;;;5107325;28;20390;-67
2022/06/14 08:41:01;;;;;;;13.13;4.78;;;21.70;94.80;;;;;;5109967;28;20031;-66
2022/06/14 08:43:42;;;;;;;13.40;5.13;;;20.60;96.90;;;;;;5110074;28;20032;-67
2022/06/14 08:46:49;;;;;;;13.57;5.55;;;19.50;99.80;;;;;;5110556;28;20035;-67
2022/06/14 08:49:41;;;;;;;12.77;6.18;;;18.50;99.90;;;;;;5118526;27;20055;-67
2022/06/14 08:52:35;;;;;;;14.02;6.97;;;18.30;99.90;;;;;;5102407;28;20019;-67
2022/06/14 08:55:17;;;;;;;14.23;6.57;;;18.00;99.90;;;;;;5102289;28;20397;-67
2022/06/14 08:58:23;;;;;;;14.30;6.50;;;17.90;99.90;;;;;;5108182;28;20024;-66
2022/06/14 09:01:16;;;;;;;14.05;6.45;;;18.20;99.90;;;;;;5107501;28;20023;-67
2022/06/14 09:04:21;;;;;;;14.05;5.93;;;18.40;99.90;;;;;;5108715;28;20027;-67
2022/06/14 09:07:27;;;;;;;12.18;5.50;;;18.30;99.90;;;;;;5091664;28;20027;-67
2022/06/14 09:10:24;;;;;;;15.07;5.95;;;18.40;99.90;;;;;;5113087;28;20098;-68
2022/06/14 09:13:27;;;;;;;14.63;6.78;;;18.40;99.90;;;;;;5107717;28;20027;-67
2022/06/14 09:16:33;;;;;;;12.70;6.25;;;18.40;99.90;;;;;;5111949;28;20181;-67
2022/06/14 09:19:12;;;;;;;15.77;7.30;;;18.40;99.90;;;;;;5107871;28;20522;-68
2022/06/14 09:25:02;;;;;;;16.10;7.88;;;18.00;99.90;;;;;;5097007;27;20446;-68
2022/06/14 09:27:50;;;;;;;19.77;8.32;;;18.70;99.90;;;;;;5086095;28;20115;-68
2022/06/14 09:30:56;;;;;;;14.68;7.80;;;18.70;99.90;;;;;;5102023;28;20016;-68
2022/06/14 09:33:50;;;;;;;16.10;8.07;;;18.60;99.90;;;;;;5084502;28;20126;-67
2022/06/14 09:36:56;;;;;;;18.98;7.57;;;19.00;99.90;;;;;;5094387;28;20032;-67
2022/06/14 09:39:45;;;;;;;14.95;7.20;;;19.20;99.90;;;;;;5094260;28;20383;-67
2022/06/14 09:42:40;;;;;;;11.57;6.30;;;20.60;99.90;;;;;;5089514;28;20059;-67
2022/06/14 09:45:46;;;;;;;15.07;6.40;;;20.70;99.90;;;;;;5076766;28;20482;-68
2022/06/14 09:48:45;;;;;;;12.85;6.55;;;20.20;99.90;;;;;;5088324;28;20500;-67
2022/06/14 09:51:50;;;;;;;15.40;6.30;;;20.10;99.90;;;;;;5091407;28;20020;-67
2022/06/14 09:54:52;;;;;;;15.73;6.63;;;19.80;99.90;;;;;;5078512;28;20042;-67
2022/06/14 09:57:44;;;;;;;11.45;6.95;;;20.80;99.10;;;;;;5078038;28;20129;-67
2022/06/14 10:00:21;;;;;;;12.98;6.68;;;22.10;94.00;;;;;;5077767;28;20031;-67
2022/06/14 10:03:26;;;;;;;11.05;6.30;;;21.90;95.00;;;;;;5073173;28;20131;-67
2022/06/14 10:06:15;;;;;;;13.13;7.25;;;21.50;95.60;;;;;;5089466;28;20032;-67
2022/06/14 10:09:07;;;;;;;14.40;6.80;;;21.60;95.20;;;;;;5088570;28;20020;-67
2022/06/14 10:11:58;;;;;;;12.57;8.13;;;21.90;93.40;;;;;;5088954;28;20474;-67
2022/06/14 10:14:55;;;;;;;16.08;7.72;;;21.00;94.90;;;;;;5089737;28;20111;-67
2022/06/14 10:17:40;;;;;;;10.95;6.53;;;21.50;94.30;;;;;;5091240;28;20031;-66
2022/06/14 10:20:31;;;;;;;13.73;6.50;;;21.50;92.90;;;;;;5090820;28;20016;-67
2022/06/14 10:23:26;;;;;;;10.00;6.50;;;21.90;93.00;;;;;;5086380;28;20040;-68
2022/06/14 10:29:32;;;;;;;8.90;4.20;;;23.80;88.20;;;;;;5087975;28;20016;-68
2022/06/14 10:32:34;;;;;;;10.85;4.65;;;22.60;91.50;;;;;;5089832;28;20070;-68
2022/06/14 10:35:25;;;;;;;11.90;4.60;;;21.90;92.40;;;;;;5071523;28;20024;-68
2022/06/14 10:38:30;;;;;;;12.73;5.05;;;21.80;93.70;;;;;;5079135;28;20028;-68
2022/06/14 10:41:15;;;;;;;13.50;4.97;;;23.20;91.20;;;;;;5079639;28;20032;-68
2022/06/14 10:43:50;;;;;;;14.70;6.00;;;23.70;88.90;;;;;;5077267;28;20032;-68
2022/06/14 10:46:32;;;;;;;9.40;5.38;;;23.70;83.70;;;;;;5069342;28;20020;-67
2022/06/14 10:49:23;;;;;;;11.45;5.50;;;23.10;84.30;;;;;;5075806;28;20047;-66
2022/06/14 10:52:20;;;;;;;13.90;5.82;;;23.40;88.50;;;;;;5075449;28;20031;-67
2022/06/14 10:57:51;;;;;;;11.02;5.22;;;22.60;86.40;;;;;;5115118;27;20398;-67
2022/06/14 11:00:46;;;;;;;9.88;5.30;;;23.10;90.20;;;;;;5096118;28;20479;-67
2022/06/14 11:09:22;;;;;;;10.65;6.35;;;22.40;88.20;;;;;;5094501;27;20453;-67
2022/06/14 11:12:11;;;;;;;14.30;6.72;;;22.40;88.90;;;;;;5096173;28;20537;-68
2022/06/14 11:14:51;;;;;;;15.27;9.35;;;22.00;89.20;;;;;;5101622;28;20020;-67
2022/06/14 11:17:43;;;;;;;12.70;5.40;;;21.90;90.50;;;;;;5096404;28;20050;-68
2022/06/14 11:20:23;;;;;;;11.07;5.35;;;22.10;90.90;;;;;;5092087;28;20024;-67
2022/06/14 11:25:44;;;;;;;13.60;5.88;;;22.80;89.60;;;;;;5095029;28;20871;-68
2022/06/14 11:28:37;;;;;;;11.77;5.47;;;22.30;87.00;;;;;;5062896;28;20108;-67
2022/06/14 11:31:29;;;;;;;14.98;4.88;;;22.40;89.90;;;;;;5077727;28;20103;-67
2022/06/14 11:34:22;;;;;;;8.50;4.50;;;22.30;90.20;;;;;;5077313;28;20161;-67
2022/06/14 11:37:26;;;;;;;13.05;5.45;;;22.90;89.40;;;;;;5087159;28;20127;-67
2022/06/14 11:39:56;;;;;;;;;;;22.10;87.10;;;;;;5068392;28;20025;-67
2022/06/14 11:42:26;;;;;;;10.35;6.38;;;22.00;90.00;;;;;;5068674;28;20003;-67
2022/06/14 11:45:32;;;;;;;9.88;5.00;;;22.40;88.90;;;;;;5073487;28;20025;-67
2022/06/14 11:48:23;;;;;;;11.23;5.13;;;22.90;86.60;;;;;;5071089;28;20364;-67
2022/06/14 11:50:56;;;;;;;11.90;5.40;;;23.10;85.50;;;;;;5080699;28;20013;-67
2022/06/14 11:53:33;;;;;;;;;;;22.80;86.50;;;;;;5082242;28;20016;-67
2022/06/14 11:56:38;;;;;;;9.73;4.82;;;22.70;87.30;;;;;;5078329;28;19944;-67
2022/06/14 12:02:29;;;;;;;9.73;5.90;;;22.90;84.70;;;;;;5120230;27;20390;-65
2022/06/14 12:05:07;;;;;;;8.80;5.90;;;22.50;85.50;;;;;;5108893;28;20063;-66
2022/06/14 12:07:38;;;;;;;15.82;6.10;;;22.00;85.10;;;;;;5108598;28;20028;-66
2022/06/14 12:13:33;;;;;;;10.23;6.10;;;21.70;86.80;;;;;;5111061;27;20845;-65
2022/06/14 12:16:23;;;;;;;10.70;5.82;;;21.60;86.10;;;;;;5115614;28;20028;-66
2022/06/14 12:19:07;;;;;;;11.90;5.97;;;21.30;85.20;;;;;;5108127;28;20023;-66
2022/06/14 12:21:43;;;;;;;11.90;5.70;;;21.20;85.60;;;;;;5101824;28;20081;-66
2022/06/14 12:24:17;;;;;;;12.18;4.72;;;21.60;87.70;;;;;;5110082;28;20027;-66
2022/06/14 12:26:59;;;;;;;8.35;4.07;;;22.20;87.80;;;;;;5109503;28;20489;-66
2022/06/14 12:29:31;;;;;;;10.05;4.20;;;22.70;88.00;;;;;;5117550;28;20028;-65
2022/06/14 12:32:20;;;;;;;7.75;4.88;;;22.80;83.80;;;;;;5107351;28;20391;-66
2022/06/14 12:34:56;;;;;;;7.88;4.32;;;23.20;81.20;;;;;;5106235;28;20020;-66
2022/06/14 12:37:43;;;;;;;9.30;4.22;;;22.90;79.80;;;;;;5111139;28;20012;-66
2022/06/14 12:40:17;;;;;;;10.23;4.55;;;22.10;79.50;;;;;;5108079;28;20035;-64
2022/06/14 12:43:11;;;;;;;9.32;3.80;;;22.30;83.60;;;;;;5106106;28;20020;-65
2022/06/14 12:45:41;;;;;;;6.80;4.30;;;22.50;82.40;;;;;;5115513;28;20028;-66
2022/06/14 12:48:22;;;;;;;6.85;3.70;;;21.90;82.70;;;;;;5108005;28;20059;-66
2022/06/14 12:51:00;;;;;;;7.22;3.45;;;22.20;84.60;;;;;;5111518;28;20547;-66
2022/06/14 12:53:52;;;;;;;8.90;4.07;;;22.80;84.00;;;;;;5108448;28;20046;-65
2022/06/14 12:56:24;;;;;;;7.75;3.72;;;22.50;80.60;;;;;;5107039;28;20020;-65
2022/06/14 12:59:20;;;;;;;7.10;3.63;;;22.60;80.00;;;;;;5108520;28;20016;-65
2022/06/14 13:01:56;;;;;;;9.50;3.80;;;21.60;80.60;;;;;;5101229;28;20059;-66
2022/06/14 13:04:29;;;;;;;8.15;3.45;;;21.80;84.00;;;;;;5111644;28;20081;-65
2022/06/14 13:10:19;;;;;;;8.95;3.00;;;21.60;82.10;;;;;;5068336;28;20402;-66
2022/06/14 13:13:24;;;;;;;10.07;4.80;;;22.00;86.30;;;;;;5065980;28;20091;-65
2022/06/14 13:16:17;;;;;;;11.45;3.00;;;22.60;85.10;;;;;;5071491;28;20031;-65
2022/06/14 13:19:16;;;;;;;7.95;3.10;;;22.80;81.40;;;;;;5065070;28;20471;-65
2022/06/14 13:22:06;;;;;;;7.72;3.35;;;22.30;80.70;;;;;;5050672;28;20032;-64
2022/06/14 13:25:03;;;;;;;8.75;3.47;;;22.50;84.00;;;;;;5069366;28;20024;-65
2022/06/14 13:28:04;;;;;;;9.55;3.22;;;22.90;83.80;;;;;;5068924;28;20487;-65
2022/06/14 13:30:56;;;;;;;11.93;3.50;;;23.20;83.70;;;;;;5068324;28;20119;-65
2022/06/14 13:33:41;;;;;;;11.45;3.75;;;23.40;81.80;;;;;;5068964;28;20031;-66
2022/06/14 13:36:26;;;;;;;9.77;3.67;;;23.10;81.20;;;;;;5068525;28;20064;-66
2022/06/14 13:39:11;;;;;;;13.60;3.63;;;23.10;82.20;;;;;;5067118;28;20036;-66
2022/06/14 13:42:00;;;;;;;9.75;2.95;;;23.20;80.80;;;;;;5064292;28;20028;-66
2022/06/14 13:44:41;;;;;;;9.15;3.13;;;23.20;82.20;;;;;;5067443;28;20499;-65
2022/06/14 13:47:17;;;;;;;6.88;2.42;;;23.10;82.50;;;;;;5064493;28;20178;-65
2022/06/14 13:49:52;;;;;;;7.65;3.03;;;23.10;81.70;;;;;;5061435;28;20503;-66
2022/06/14 13:52:25;;;;;;;7.82;3.13;;;23.20;79.50;;;;;;5064272;28;20390;-66
2022/06/14 13:55:03;;;;;;;6.97;2.78;;;23.00;79.10;;;;;;5065776;28;20021;-66
2022/06/14 13:57:47;;;;;;;7.15;2.80;;;22.80;79.30;;;;;;5067929;28;20394;-65
2022/06/14 14:00:33;;;;;;;9.60;2.80;;;22.90;81.40;;;;;;5068624;28;20558;-65
2022/06/14 14:03:26;;;;;;;8.85;2.80;;;23.00;79.70;;;;;;5071075;28;20028;-65
2022/06/14 14:06:16;;;;;;;6.97;2.70;;;22.70;76.70;;;;;;5072499;28;20111;-64
2022/06/14 14:09:09;;;;;;;8.82;3.03;;;22.90;80.10;;;;;;5068697;28;20449;-65
2022/06/14 14:12:13;;;;;;;7.15;2.70;;;22.60;75.70;;;;;;5065719;28;20100;-65
2022/06/14 14:15:05;;;;;;;6.47;2.92;;;22.40;75.20;;;;;;5067261;28;20103;-65
2022/06/14 14:17:41;;;;;;;6.32;2.28;;;22.50;78.80;;;;;;5067939;28;20372;-65
2022/06/14 14:20:45;;;;;;;5.07;2.20;;;22.60;78.90;;;;;;5057986;28;20048;-65
2022/06/14 14:23:20;;;;;;;9.10;2.47;;;22.70;77.60;;;;;;5053097;28;20120;-63
2022/06/14 14:25:55;;;;;;;6.38;2.70;;;22.50;76.90;;;;;;5055235;28;20530;-64
2022/06/14 14:28:38;;;;;;;5.03;2.50;;;22.70;77.80;;;;;;5058365;28;20100;-63
2022/06/14 14:31:37;;;;;;;7.30;2.80;;;22.80;76.00;;;;;;5048658;28;20800;-65
2022/06/14 14:34:29;;;;;;;6.50;2.13;;;22.90;74.00;;;;;;5060785;28;20037;-64
2022/06/14 14:37:02;;;;;;;6.45;2.13;;;22.90;76.20;;;;;;5048162;28;20024;-65
2022/06/14 14:45:47;;;;;;;5.90;2.13;;;23.00;71.90;;;;;;5090229;27;20869;-65
2022/06/14 14:48:24;;;;;;;8.18;2.25;;;22.80;71.10;;;;;;5079120;28;20108;-64